Time;durP1;ratioP1;P1;durP2;ratioP2;P2;SDS_P1;SDS_P2;PMS_P1;PMS_P2;Temp;Humidity;BMP_temperature;BMP_pressure;BME280_temperature;BME280_humidity;BME280_pressure;Samples;Min_cycle;Max_cycle;Signal;HPM_P1;HPM_P2
2023/10/21 00:01:05;;;;;;;1.80;1.70;;;;;;;12.06;100.00;94336.16;5070962;28;20210;-56
2023/10/21 00:03:30;;;;;;;1.90;1.80;;;;;;;12.02;100.00;94336.78;5070550;28;20225;-56
2023/10/21 00:05:57;;;;;;;3.00;2.20;;;;;;;12.01;100.00;94343.91;5071156;28;20210;-57
2023/10/21 00:08:23;;;;;;;3.10;2.37;;;;;;;12.09;100.00;94356.13;5072061;28;20206;-57
2023/10/21 00:10:50;;;;;;;2.70;2.50;;;;;;;12.00;100.00;94360.03;5071360;28;20198;-56
2023/10/21 00:13:17;;;;;;;1.70;1.60;;;;;;;11.95;100.00;94360.66;5070778;28;20203;-55
2023/10/21 00:15:44;;;;;;;2.63;1.83;;;;;;;11.95;100.00;94360.66;5071398;28;20213;-58
2023/10/21 00:18:12;;;;;;;2.20;1.73;;;;;;;11.90;100.00;94369.19;5070988;28;20218;-58
2023/10/21 00:20:38;;;;;;;2.73;2.30;;;;;;;11.88;100.00;94376.53;5071672;28;20255;-57
2023/10/21 00:23:05;;;;;;;5.17;2.57;;;;;;;11.83;100.00;94389.56;5070892;28;20211;-57
2023/10/21 00:25:32;;;;;;;3.30;2.00;;;;;;;11.86;100.00;94393.66;5070843;28;20210;-57
2023/10/21 00:27:58;;;;;;;2.50;2.10;;;;;;;11.85;100.00;94406.09;5069902;28;20226;-57
2023/10/21 00:30:26;;;;;;;2.60;2.20;;;;;;;11.85;100.00;94408.75;5070766;28;20209;-58
2023/10/21 00:32:53;;;;;;;3.23;2.07;;;;;;;11.87;100.00;94411.16;5070620;28;20206;-56
2023/10/21 00:35:19;;;;;;;2.17;1.97;;;;;;;11.89;100.00;94428.50;5069949;28;20203;-56
2023/10/21 00:37:44;;;;;;;2.53;2.10;;;;;;;11.93;100.00;94429.72;5072643;28;20218;-56
2023/10/21 00:40:15;;;;;;;1.80;1.70;;;;;;;11.97;100.00;94430.13;5074664;28;20214;-56
2023/10/21 00:42:41;;;;;;;2.30;2.13;;;;;;;11.98;100.00;94424.59;5074086;28;20238;-55
2023/10/21 00:45:09;;;;;;;2.60;2.00;;;;;;;12.00;100.00;94431.53;5074421;28;20553;-58
2023/10/21 00:47:37;;;;;;;2.67;1.77;;;;;;;12.06;100.00;94439.47;5073760;28;20206;-57
2023/10/21 00:50:04;;;;;;;1.70;1.60;;;;;;;12.10;100.00;94442.53;5072757;28;20603;-58
2023/10/21 00:52:31;;;;;;;2.30;1.70;;;;;;;12.18;100.00;94444.97;5075385;28;20198;-57
2023/10/21 00:55:00;;;;;;;1.60;1.50;;;;;;;12.27;100.00;94433.13;5076872;28;20198;-56
2023/10/21 00:57:26;;;;;;;2.20;1.33;;;;;;;12.31;100.00;94424.56;5074566;28;20268;-56
2023/10/21 00:59:54;;;;;;;1.60;1.50;;;;;;;12.38;100.00;94432.50;5073845;28;20206;-57
2023/10/21 01:02:21;;;;;;;1.20;1.20;;;;;;;12.52;100.00;94431.44;5073798;28;20230;-57
2023/10/21 01:04:51;;;;;;;1.07;0.90;;;;;;;12.62;100.00;94429.16;5073594;28;20206;-58
2023/10/21 01:07:17;;;;;;;1.03;0.87;;;;;;;12.75;100.00;94433.59;5074173;28;20210;-57
2023/10/21 01:09:44;;;;;;;1.30;0.77;;;;;;;12.77;100.00;94435.03;5073981;28;20203;-58
2023/10/21 01:12:13;;;;;;;0.73;0.73;;;;;;;12.83;100.00;94444.78;5073387;28;20226;-57
2023/10/21 01:14:39;;;;;;;0.97;0.97;;;;;;;12.95;100.00;94443.09;5073721;28;20248;-57
2023/10/21 01:17:06;;;;;;;0.90;0.70;;;;;;;13.03;100.00;94455.31;5073603;28;20222;-58
2023/10/21 01:19:34;;;;;;;1.73;0.70;;;;;;;13.05;100.00;94458.56;5072245;28;20541;-58
2023/10/21 01:22:01;;;;;;;0.67;0.67;;;;;;;13.08;100.00;94462.63;5073901;28;20210;-57
2023/10/21 01:24:32;;;;;;;0.90;0.60;;;;;;;13.10;100.00;94471.22;5072912;28;20210;-58
2023/10/21 01:26:59;;;;;;;0.63;0.63;;;;;;;13.10;100.00;94479.19;5072560;28;20238;-57
2023/10/21 01:29:25;;;;;;;1.23;0.57;;;;;;;13.06;100.00;94491.22;5073288;28;20206;-57
2023/10/21 01:31:51;;;;;;;1.00;0.70;;;;;;;13.11;100.00;94478.19;5073532;28;20206;-57
2023/10/21 01:34:18;;;;;;;2.17;0.70;;;;;;;13.13;100.00;94486.72;5073684;28;20226;-56
2023/10/21 01:36:44;;;;;;;1.50;0.70;;;;;;;13.11;100.00;94488.78;5073022;28;20210;-57
2023/10/21 01:39:11;;;;;;;0.70;0.70;;;;;;;13.11;100.00;94502.06;5073110;28;20230;-57
2023/10/21 01:41:39;;;;;;;2.00;0.80;;;;;;;13.08;100.00;94502.41;5073317;28;20555;-56
2023/10/21 01:44:06;;;;;;;1.30;0.90;;;;;;;13.02;100.00;94497.97;5072547;28;20226;-57
2023/10/21 01:46:33;;;;;;;0.70;0.70;;;;;;;12.99;100.00;94507.16;5073514;28;20207;-58
2023/10/21 01:48:59;;;;;;;1.20;0.60;;;;;;;13.00;100.00;94515.94;5072094;28;20295;-57
2023/10/21 01:51:26;;;;;;;0.87;0.70;;;;;;;13.04;100.00;94514.50;5073481;28;20202;-58
2023/10/21 01:53:51;;;;;;;1.47;0.57;;;;;;;13.05;100.00;94526.72;5073470;28;20202;-58
2023/10/21 01:56:18;;;;;;;0.67;0.67;;;;;;;13.06;100.00;94523.06;5076485;28;20207;-57
2023/10/21 01:58:46;;;;;;;4.73;0.70;;;;;;;13.04;100.00;94525.13;5076401;28;20222;-59
2023/10/21 02:01:12;;;;;;;2.05;0.57;;;;;;;12.97;100.00;94520.63;5076802;28;20202;-56
2023/10/21 02:03:40;;;;;;;0.60;0.60;;;;;;;12.99;100.00;94539.00;5072439;28;20574;-58
2023/10/21 02:06:08;;;;;;;1.23;1.00;;;;;;;12.95;100.00;94535.94;5072641;28;20568;-57
2023/10/21 02:08:34;;;;;;;1.00;0.60;;;;;;;12.91;100.00;94542.69;5072316;28;20620;-57
2023/10/21 02:11:02;;;;;;;0.43;0.43;;;;;;;12.90;100.00;94553.50;5072702;28;20630;-57
2023/10/21 02:13:29;;;;;;;1.93;0.70;;;;;;;12.86;100.00;94553.09;5072246;28;20221;-58
2023/10/21 02:15:58;;;;;;;0.90;0.90;;;;;;;12.82;100.00;94548.44;5072847;28;20209;-58
2023/10/21 02:18:24;;;;;;;0.67;0.67;;;;;;;12.82;100.00;94549.22;5071687;28;20234;-57
2023/10/21 02:20:52;;;;;;;0.60;0.60;;;;;;;12.88;100.00;94561.69;5071802;28;20527;-56
2023/10/21 02:23:19;;;;;;;0.73;0.70;;;;;;;12.79;100.00;94564.75;5070574;28;20207;-57
2023/10/21 02:25:45;;;;;;;0.90;0.60;;;;;;;12.76;100.00;94584.53;5071917;28;20221;-57
2023/10/21 02:28:12;;;;;;;0.80;0.80;;;;;;;12.75;100.00;94582.13;5071178;28;20654;-57
2023/10/21 02:30:39;;;;;;;0.70;0.70;;;;;;;12.75;100.00;94579.47;5072510;28;20751;-57
2023/10/21 02:33:09;;;;;;;1.10;1.00;;;;;;;12.69;100.00;94583.72;5071495;28;20199;-57
2023/10/21 02:35:36;;;;;;;0.70;0.70;;;;;;;12.78;100.00;94585.16;5071639;28;20198;-57
2023/10/21 02:38:02;;;;;;;1.13;0.67;;;;;;;12.81;100.00;94595.34;5072384;28;20227;-57
2023/10/21 02:40:29;;;;;;;1.27;0.90;;;;;;;12.87;100.00;94597.19;5072433;28;20218;-57
2023/10/21 02:42:56;;;;;;;0.50;0.50;;;;;;;12.95;100.00;94604.94;5071241;28;20242;-57
2023/10/21 02:45:24;;;;;;;0.50;0.50;;;;;;;12.97;100.00;94602.03;5071440;28;20202;-56
2023/10/21 02:47:50;;;;;;;2.50;0.60;;;;;;;13.02;100.00;94602.25;5071504;28;20190;-56
2023/10/21 02:50:18;;;;;;;0.60;0.50;;;;;;;13.05;100.00;94611.63;5071484;28;20199;-57
2023/10/21 02:52:44;;;;;;;1.00;0.50;;;;;;;13.11;100.00;94613.50;5071619;28;20219;-57
2023/10/21 02:55:12;;;;;;;0.67;0.33;;;;;;;13.12;100.00;94615.13;5072206;28;20296;-57
2023/10/21 02:57:39;;;;;;;0.57;0.50;;;;;;;13.17;100.00;94610.00;5071556;28;20228;-57
2023/10/21 03:00:10;;;;;;;0.33;0.33;;;;;;;13.23;100.00;94617.13;5069853;28;20554;-58
2023/10/21 03:02:37;;;;;;;0.30;0.30;;;;;;;13.24;100.00;94616.94;5071078;28;20234;-57
2023/10/21 03:05:05;;;;;;;0.50;0.30;;;;;;;13.29;100.00;94629.56;5071214;28;20206;-58
2023/10/21 03:07:33;;;;;;;0.33;0.33;;;;;;;13.32;100.00;94629.94;5068918;28;20212;-56
2023/10/21 03:09:59;;;;;;;2.73;0.20;;;;;;;13.34;100.00;94643.03;5071103;28;21503;-58
2023/10/21 03:12:26;;;;;;;0.20;0.20;;;;;;;13.36;100.00;94640.97;5071216;28;20221;-58
2023/10/21 03:14:52;;;;;;;0.20;0.20;;;;;;;13.38;100.00;94647.72;5071195;28;20209;-57
2023/10/21 03:17:19;;;;;;;0.37;0.20;;;;;;;13.41;100.00;94654.44;5071410;28;20210;-57
2023/10/21 03:19:46;;;;;;;0.40;0.40;;;;;;;13.41;100.00;94643.81;5071316;28;20252;-58
2023/10/21 03:22:12;;;;;;;0.40;0.40;;;;;;;13.41;100.00;94657.09;5071301;28;20217;-58
2023/10/21 03:24:40;;;;;;;1.57;0.20;;;;;;;13.39;100.00;94656.50;5073593;28;20206;-57
2023/10/21 03:27:06;;;;;;;0.23;0.10;;;;;;;13.38;100.00;94650.38;5074360;28;20203;-57
2023/10/21 03:29:33;;;;;;;0.30;0.20;;;;;;;13.39;100.00;94665.25;5072371;28;20213;-57
2023/10/21 03:31:59;;;;;;;0.10;0.10;;;;;;;13.34;100.00;94669.56;5070607;28;20202;-57
2023/10/21 03:34:26;;;;;;;0.73;0.40;;;;;;;13.29;100.00;94677.34;5070406;28;20213;-58
2023/10/21 03:36:53;;;;;;;0.75;0.20;;;;;;;13.26;100.00;94677.75;5069983;28;20674;-57
2023/10/21 03:39:20;;;;;;;0.20;0.20;;;;;;;13.26;100.00;94677.75;5070438;28;20329;-57
2023/10/21 03:41:48;;;;;;;0.50;0.30;;;;;;;13.25;100.00;94686.75;5070817;28;20206;-57
2023/10/21 03:44:14;;;;;;;0.20;0.20;;;;;;;13.24;100.00;94695.75;5069964;28;20206;-57
2023/10/21 03:46:41;;;;;;;0.43;0.30;;;;;;;13.20;100.00;94705.13;5070636;28;20223;-57
2023/10/21 03:49:07;;;;;;;0.50;0.30;;;;;;;13.23;100.00;94700.22;5070070;28;20233;-57
2023/10/21 03:51:34;;;;;;;0.67;0.20;;;;;;;13.19;100.00;94714.09;5069953;28;20674;-57
2023/10/21 03:54:01;;;;;;;1.90;0.27;;;;;;;13.21;100.00;94717.38;5070623;28;20198;-57
2023/10/21 03:56:28;;;;;;;1.80;0.30;;;;;;;13.18;100.00;94715.16;5070764;28;20233;-57
2023/10/21 03:58:56;;;;;;;0.80;0.22;;;;;;;13.13;100.00;94720.25;5070633;28;20229;-57
2023/10/21 04:01:23;;;;;;;0.20;0.10;;;;;;;13.14;100.00;94732.50;5070423;28;20550;-58
2023/10/21 04:03:49;;;;;;;0.37;0.37;;;;;;;13.09;100.00;94734.91;5071366;28;20198;-57
2023/10/21 04:06:17;;;;;;;0.10;0.10;;;;;;;13.07;100.00;94743.09;5071956;28;20211;-58
2023/10/21 04:08:44;;;;;;;1.20;0.30;;;;;;;13.05;100.00;94750.41;5072287;28;20191;-57
2023/10/21 04:11:10;;;;;;;0.77;0.30;;;;;;;12.97;100.00;94748.78;5072945;28;20642;-58
2023/10/21 04:13:37;;;;;;;0.50;0.30;;;;;;;12.96;100.00;94741.88;5076058;28;20238;-58
2023/10/21 04:16:05;;;;;;;0.67;0.33;;;;;;;12.91;100.00;94746.94;5076093;28;20198;-57
2023/10/21 04:18:32;;;;;;;1.33;0.30;;;;;;;12.89;100.00;94748.97;5074223;28;20222;-57
2023/10/21 04:20:59;;;;;;;0.30;0.30;;;;;;;12.87;100.00;94752.84;5074471;28;20217;-58
2023/10/21 04:23:25;;;;;;;0.30;0.30;;;;;;;12.82;100.00;94753.47;5073306;28;20526;-57
2023/10/21 04:25:52;;;;;;;1.60;0.40;;;;;;;12.78;100.00;94746.94;5074292;28;20194;-57
2023/10/21 04:28:19;;;;;;;0.20;0.20;;;;;;;12.77;100.00;94752.44;5073846;28;20198;-57
2023/10/21 04:30:46;;;;;;;0.20;0.20;;;;;;;12.72;100.00;94755.69;5075731;28;20718;-57
2023/10/21 04:33:14;;;;;;;1.37;0.20;;;;;;;12.72;100.00;94763.66;5074067;28;20723;-58
2023/10/21 04:35:41;;;;;;;0.30;0.30;;;;;;;12.72;100.00;94766.31;5075184;28;20551;-57
2023/10/21 04:38:09;;;;;;;0.20;0.20;;;;;;;12.68;100.00;94765.06;5073761;28;20238;-56
2023/10/21 04:40:36;;;;;;;0.57;0.15;;;;;;;12.67;100.00;94768.75;5075095;28;20547;-57
2023/10/21 04:43:03;;;;;;;0.23;0.23;;;;;;;12.66;100.00;94779.56;5074047;28;20245;-58
2023/10/21 04:45:30;;;;;;;0.30;0.30;;;;;;;12.65;100.00;94781.38;5073006;28;20206;-58
2023/10/21 04:47:56;;;;;;;1.87;0.30;;;;;;;12.64;100.00;94778.94;5073577;28;20205;-58
2023/10/21 04:50:24;;;;;;;0.13;0.10;;;;;;;12.65;100.00;94784.03;5073067;28;20209;-58
2023/10/21 04:52:51;;;;;;;0.53;0.30;;;;;;;12.61;100.00;94784.66;5072331;28;20206;-58
2023/10/21 04:55:17;;;;;;;0.10;0.10;;;;;;;12.59;100.00;94790.16;5073530;28;20198;-58
2023/10/21 04:57:44;;;;;;;1.67;0.43;;;;;;;12.57;100.00;94799.31;5072987;28;20211;-58
2023/10/21 05:00:11;;;;;;;0.30;0.20;;;;;;;12.55;100.00;94796.84;5073540;28;20280;-58
2023/10/21 05:02:39;;;;;;;1.30;0.10;;;;;;;12.52;100.00;94799.91;5073893;28;20210;-56
2023/10/21 05:05:06;;;;;;;0.20;0.13;;;;;;;12.51;100.00;94810.72;5073646;28;20206;-58
2023/10/21 05:07:34;;;;;;;0.60;0.30;;;;;;;12.48;100.00;94801.31;5071899;28;20209;-56
2023/10/21 05:10:01;;;;;;;0.83;0.30;;;;;;;12.53;100.00;94798.09;5073536;28;20202;-58
2023/10/21 05:12:27;;;;;;;0.73;0.30;;;;;;;12.46;100.00;94800.72;5073228;28;20194;-58
2023/10/21 05:14:54;;;;;;;1.80;0.40;;;;;;;12.44;100.00;94802.75;5073477;28;20206;-57
2023/10/21 05:17:20;;;;;;;1.20;0.00;;;;;;;12.42;100.00;94823.34;5074332;28;20701;-58
2023/10/21 05:19:47;;;;;;;0.73;0.20;;;;;;;12.38;100.00;94822.91;5073625;28;20226;-56
2023/10/21 05:22:14;;;;;;;1.93;0.20;;;;;;;12.39;100.00;94829.03;5074844;28;20199;-57
2023/10/21 05:24:42;;;;;;;1.60;0.20;;;;;;;12.33;100.00;94832.47;5077338;28;20268;-57
2023/10/21 05:27:09;;;;;;;0.83;0.20;;;;;;;12.30;100.00;94843.47;5078798;28;20218;-58
2023/10/21 05:29:36;;;;;;;0.50;0.20;;;;;;;12.24;100.00;94847.72;5074197;28;20626;-57
2023/10/21 05:32:02;;;;;;;0.97;0.23;;;;;;;12.20;100.00;94854.44;5074910;28;20220;-57
2023/10/21 05:34:29;;;;;;;1.20;0.20;;;;;;;12.17;100.00;94862.78;5074582;28;20202;-57
2023/10/21 05:36:55;;;;;;;1.30;0.20;;;;;;;12.15;100.00;94864.00;5074792;28;20210;-58
2023/10/21 05:39:22;;;;;;;1.87;0.37;;;;;;;12.10;100.00;94866.41;5073572;28;20231;-57
2023/10/21 05:41:51;;;;;;;1.77;0.13;;;;;;;12.04;100.00;94870.66;5073411;28;20627;-57
2023/10/21 05:44:17;;;;;;;1.53;0.20;;;;;;;12.04;100.00;94870.66;5072595;28;20552;-58
2023/10/21 05:46:44;;;;;;;1.13;0.60;;;;;;;12.01;100.00;94878.97;5073593;28;20222;-58
2023/10/21 05:49:10;;;;;;;0.70;0.50;;;;;;;12.02;100.00;94885.91;5073233;28;20191;-57
2023/10/21 05:51:37;;;;;;;2.90;0.33;;;;;;;12.00;100.00;94890.59;5073203;28;20198;-58
2023/10/21 05:54:04;;;;;;;0.10;0.10;;;;;;;11.97;100.00;94893.66;5072309;28;20223;-60
2023/10/21 05:56:30;;;;;;;0.10;0.10;;;;;;;11.91;100.00;94899.69;5071973;28;20203;-57
2023/10/21 05:58:58;;;;;;;0.47;0.10;;;;;;;11.88;100.00;94908.84;5072045;28;20241;-58
2023/10/21 06:01:24;;;;;;;0.20;0.20;;;;;;;11.87;100.00;94920.44;5072824;28;20209;-58
2023/10/21 06:03:51;;;;;;;0.47;0.10;;;;;;;11.83;100.00;94919.19;5072376;28;20207;-56
2023/10/21 06:06:18;;;;;;;0.40;0.20;;;;;;;11.78;100.00;94926.09;5073154;28;20203;-57
2023/10/21 06:08:44;;;;;;;0.23;0.20;;;;;;;11.73;100.00;94925.84;5071688;28;20544;-57
2023/10/21 06:11:11;;;;;;;0.73;0.30;;;;;;;11.74;100.00;94932.78;5073358;28;20215;-56
2023/10/21 06:13:37;;;;;;;5.33;0.30;;;;;;;11.71;100.00;94947.22;5072198;28;20236;-58
2023/10/21 06:16:05;;;;;;;1.53;0.37;;;;;;;11.73;100.00;94947.84;5072672;28;20203;-58
2023/10/21 06:18:32;;;;;;;2.30;0.40;;;;;;;11.71;100.00;94941.94;5072370;28;20222;-56
2023/10/21 06:20:59;;;;;;;0.53;0.53;;;;;;;11.73;100.00;94945.19;5074820;28;20285;-58
2023/10/21 06:23:25;;;;;;;0.90;0.30;;;;;;;11.77;100.00;94942.97;5074922;28;20269;-56
2023/10/21 06:25:52;;;;;;;0.23;0.23;;;;;;;11.86;100.00;94949.78;5072668;28;20222;-58
2023/10/21 06:28:18;;;;;;;0.20;0.20;;;;;;;11.87;100.00;94954.88;5071442;28;20198;-57
2023/10/21 06:30:45;;;;;;;0.20;0.20;;;;;;;11.90;100.00;94959.78;5074005;28;20527;-57
2023/10/21 06:33:13;;;;;;;0.50;0.50;;;;;;;11.95;100.00;94965.34;5072559;28;20221;-58
2023/10/21 06:35:40;;;;;;;0.90;0.40;;;;;;;12.04;100.00;94973.16;5072674;28;20207;-58
2023/10/21 06:38:06;;;;;;;0.10;0.10;;;;;;;12.10;100.00;94982.97;5073198;28;20532;-59
2023/10/21 06:40:33;;;;;;;0.30;0.30;;;;;;;12.16;100.00;94976.91;5071987;28;20230;-57
2023/10/21 06:43:00;;;;;;;0.20;0.20;;;;;;;12.23;100.00;94983.88;5075218;28;20230;-57
2023/10/21 06:45:27;;;;;;;0.23;0.20;;;;;;;12.29;100.00;94987.59;5081317;28;20321;-57
2023/10/21 06:47:53;;;;;;;0.37;0.20;;;;;;;12.32;100.00;94993.34;5072927;28;20219;-58
2023/10/21 06:50:22;;;;;;;0.30;0.30;;;;;;;12.36;100.00;94993.78;5073182;28;20252;-57
2023/10/21 06:52:48;;;;;;;0.30;0.30;;;;;;;12.39;100.00;94996.84;5072458;28;20221;-57
2023/10/21 06:55:15;;;;;;;0.80;0.73;;;;;;;12.43;100.00;95010.53;5072454;28;20627;-57
2023/10/21 06:57:42;;;;;;;1.90;1.80;;;;;;;12.44;100.00;95014.81;5071798;28;20217;-56
2023/10/21 07:00:09;;;;;;;1.33;0.90;;;;;;;12.46;100.00;95016.28;5071813;28;20215;-57
2023/10/21 07:02:36;;;;;;;0.43;0.43;;;;;;;12.49;100.00;95020.34;5075118;28;20297;-57
2023/10/21 07:05:03;;;;;;;0.63;0.27;;;;;;;12.52;100.00;95024.44;5078994;28;20653;-57
2023/10/21 07:07:32;;;;;;;1.13;0.50;;;;;;;12.55;100.00;95030.19;5084635;28;20304;-57
2023/10/21 07:10:01;;;;;;;0.30;0.30;;;;;;;12.58;100.00;95035.09;5076019;28;20195;-57
2023/10/21 07:12:27;;;;;;;0.63;0.40;;;;;;;12.60;100.00;95035.72;5081342;28;20210;-58
2023/10/21 07:14:54;;;;;;;2.30;0.70;;;;;;;12.62;100.00;95041.66;5079045;28;21304;-58
2023/10/21 07:17:20;;;;;;;0.40;0.33;;;;;;;12.65;100.00;95043.91;5082473;28;20300;-57
2023/10/21 07:19:47;;;;;;;0.30;0.27;;;;;;;12.71;100.00;95051.09;5079223;28;20225;-58
2023/10/21 07:22:15;;;;;;;0.57;0.40;;;;;;;12.73;100.00;95051.72;5073191;28;20569;-57
2023/10/21 07:24:43;;;;;;;0.30;0.30;;;;;;;12.75;100.00;95057.63;5072006;28;20207;-56
2023/10/21 07:27:09;;;;;;;0.43;0.43;;;;;;;12.77;100.00;95052.16;5072158;28;20202;-57
2023/10/21 07:29:36;;;;;;;0.27;0.20;;;;;;;12.83;100.00;95049.53;5071284;28;20209;-57
2023/10/21 07:32:02;;;;;;;0.20;0.20;;;;;;;12.90;100.00;95050.38;5072020;28;20206;-57
2023/10/21 07:34:29;;;;;;;0.90;0.38;;;;;;;12.96;100.00;95049.63;5071449;28;20206;-58
2023/10/21 07:36:56;;;;;;;0.40;0.40;;;;;;;13.06;100.00;95053.72;5071702;28;20214;-57
2023/10/21 07:39:22;;;;;;;0.87;0.50;;;;;;;13.11;100.00;95056.66;5069964;28;20240;-58
2023/10/21 07:41:50;;;;;;;0.87;0.53;;;;;;;13.17;100.00;95061.19;5069011;28;20210;-57
2023/10/21 07:44:17;;;;;;;1.60;1.50;;;;;;;13.20;100.00;95063.44;5070254;28;20203;-57
2023/10/21 07:46:43;;;;;;;0.82;0.82;;;;;;;13.27;100.00;95069.59;5069921;28;20602;-58
2023/10/21 07:49:10;;;;;;;2.83;1.03;;;;;;;13.32;100.00;95081.22;5070852;28;20221;-57
2023/10/21 07:51:37;;;;;;;1.75;1.05;;;;;;;13.39;100.00;95078.63;5070583;28;20724;-57
2023/10/21 07:54:04;;;;;;;0.30;0.30;;;;;;;13.45;100.00;95072.53;5070800;28;20658;-57
2023/10/21 07:56:30;;;;;;;0.40;0.40;;;;;;;13.42;100.00;95075.56;5070305;28;20233;-57
2023/10/21 07:58:58;;;;;;;0.30;0.30;;;;;;;13.47;100.00;95083.75;5070435;28;20209;-57
2023/10/21 08:01:25;;;;;;;1.83;0.33;;;;;;;13.45;100.00;95085.78;5070525;28;20210;-57
2023/10/21 08:03:52;;;;;;;0.57;0.37;;;;;;;13.50;100.00;95093.97;5070362;28;20301;-58
2023/10/21 08:06:18;;;;;;;0.25;0.25;;;;;;;13.54;100.00;95097.88;5071068;28;20199;-57
2023/10/21 08:08:45;;;;;;;0.30;0.30;;;;;;;13.56;100.00;95103.81;5070839;28;20206;-57
2023/10/21 08:11:11;;;;;;;1.65;0.65;;;;;;;13.60;100.00;95104.25;5070623;28;20201;-57
2023/10/21 08:13:38;;;;;;;0.50;0.40;;;;;;;13.61;100.00;95109.34;5070397;28;20534;-57
2023/10/21 08:16:06;;;;;;;0.50;0.50;;;;;;;13.63;100.00;95109.97;5071085;28;20205;-57
2023/10/21 08:18:34;;;;;;;1.65;0.60;;;;;;;13.65;100.00;95107.94;5070559;28;20202;-58
2023/10/21 08:21:01;;;;;;;0.50;0.40;;;;;;;13.65;100.00;95123.88;5070620;28;20659;-58
2023/10/21 08:23:27;;;;;;;1.05;0.93;;;;;;;13.67;100.00;95124.50;5070339;28;20305;-57
2023/10/21 08:25:53;;;;;;;0.65;0.65;;;;;;;13.66;100.00;95122.84;5070917;28;20218;-57
2023/10/21 08:28:20;;;;;;;1.15;1.05;;;;;;;13.73;100.00;95130.84;5070542;28;20203;-58
2023/10/21 08:30:46;;;;;;;2.13;2.03;;;;;;;13.73;100.00;95131.66;5070557;28;21062;-58
2023/10/21 08:33:14;;;;;;;3.45;1.15;;;;;;;13.73;100.00;95129.00;5070235;28;20662;-57
2023/10/21 08:35:41;;;;;;;0.75;0.75;;;;;;;13.75;100.00;95128.78;5070129;28;20202;-58
2023/10/21 08:38:07;;;;;;;0.93;0.90;;;;;;;13.81;100.00;95139.47;5069367;28;20546;-57
2023/10/21 08:40:37;;;;;;;0.60;0.60;;;;;;;13.83;100.00;95140.06;5069852;28;20686;-57
2023/10/21 08:43:04;;;;;;;1.42;0.50;;;;;;;13.87;100.00;95135.19;5068153;28;20245;-57
2023/10/21 08:45:32;;;;;;;1.15;0.50;;;;;;;13.93;100.00;95143.16;5069981;28;20199;-57
2023/10/21 08:47:59;;;;;;;0.88;0.45;;;;;;;13.95;100.00;95137.66;5070581;28;20512;-57
2023/10/21 08:50:27;;;;;;;0.35;0.35;;;;;;;13.99;100.00;95135.44;5070742;28;20512;-56
2023/10/21 08:52:55;;;;;;;0.40;0.40;;;;;;;13.99;100.00;95135.44;5070902;28;20240;-57
2023/10/21 08:55:22;;;;;;;0.93;0.38;;;;;;;13.93;100.00;95137.84;5070858;28;20226;-57
2023/10/21 08:57:48;;;;;;;0.30;0.30;;;;;;;13.98;100.00;95150.53;5070066;28;20210;-57
2023/10/21 09:00:15;;;;;;;0.40;0.38;;;;;;;14.03;100.00;95157.94;5074909;28;20667;-57
2023/10/21 09:02:41;;;;;;;0.75;0.60;;;;;;;14.07;100.00;95154.66;5085475;28;20214;-56
2023/10/21 09:05:15;;;;;;;2.22;0.40;;;;;;;14.12;100.00;95157.53;5096436;28;20205;-56
2023/10/21 09:07:47;;;;;;;0.22;0.22;;;;;;;14.22;100.00;95157.16;5098115;28;20178;-57
2023/10/21 09:10:24;;;;;;;0.22;0.20;;;;;;;14.31;100.00;95155.94;5086509;28;20542;-58
2023/10/21 09:12:51;;;;;;;0.25;0.20;;;;;;;14.39;100.00;95155.78;5076718;28;20209;-58
2023/10/21 09:15:18;;;;;;;0.32;0.22;;;;;;;14.41;100.00;95148.41;5076188;28;20337;-58
2023/10/21 09:17:45;;;;;;;0.52;0.38;;;;;;;14.49;100.00;95150.88;5074755;28;20543;-57
2023/10/21 09:20:14;;;;;;;0.32;0.32;;;;;;;14.51;100.00;95156.00;5074587;28;20230;-57
2023/10/21 09:22:42;;;;;;;0.30;0.30;;;;;;;14.58;100.00;95162.97;5075940;28;20209;-57
2023/10/21 09:25:16;;;;;;;0.10;0.10;;;;;;;14.64;100.00;95159.47;5073481;28;20538;-57
2023/10/21 09:27:43;;;;;;;0.47;0.47;;;;;;;14.74;100.00;95156.41;5071326;28;20206;-55
2023/10/21 09:30:16;;;;;;;0.25;0.25;;;;;;;15.11;100.00;95152.28;5072539;28;20203;-57
2023/10/21 09:32:43;;;;;;;0.35;0.35;;;;;;;15.37;100.00;95158.38;5073233;28;20207;-57
2023/10/21 09:35:26;;;;;;;0.70;0.30;;;;;;;15.51;100.00;95166.38;5072440;28;20620;-57
2023/10/21 09:37:54;;;;;;;0.65;0.40;;;;;;;15.60;100.00;95157.94;5072540;28;20240;-57
2023/10/21 09:40:24;;;;;;;1.65;0.52;;;;;;;15.71;100.00;95165.28;5071784;28;20569;-56
2023/10/21 09:42:52;;;;;;;0.30;0.30;;;;;;;15.67;100.00;95176.56;5071699;28;20751;-57
2023/10/21 09:45:19;;;;;;;0.40;0.20;;;;;;;15.72;100.00;95177.59;5073395;28;21315;-58
2023/10/21 09:47:46;;;;;;;0.52;0.52;;;;;;;15.75;100.00;95179.84;5073198;28;20256;-57
2023/10/21 09:50:15;;;;;;;0.20;0.20;;;;;;;15.76;100.00;95183.31;5072277;28;20520;-57
2023/10/21 09:52:52;;;;;;;0.20;0.20;;;;;;;15.77;100.00;95184.94;5072806;28;20206;-57
2023/10/21 09:55:24;;;;;;;0.40;0.20;;;;;;;15.79;100.00;95186.38;5072763;28;20187;-56
2023/10/21 09:57:53;;;;;;;0.30;0.30;;;;;;;15.69;100.00;95182.53;5072374;28;20198;-57
2023/10/21 10:00:20;;;;;;;1.85;0.40;;;;;;;15.61;100.00;95190.75;5072633;28;20222;-58
2023/10/21 10:02:48;;;;;;;1.05;0.90;;;;;;;15.70;100.00;95190.31;5071722;28;20252;-56
2023/10/21 10:05:15;;;;;;;1.20;1.20;;;;;;;15.52;100.00;95192.81;5072133;28;21087;-57
2023/10/21 10:07:42;;;;;;;4.10;3.70;;;;;;;15.44;100.00;95196.47;5072276;28;20305;-57
2023/10/21 10:10:11;;;;;;;1.90;1.80;;;;;;;15.62;100.00;95198.53;5070456;28;20217;-57
2023/10/21 10:12:45;;;;;;;1.92;0.90;;;;;;;15.55;100.00;95205.72;5078526;28;20233;-57
2023/10/21 10:15:32;;;;;;;1.48;0.50;;;;;;;15.65;100.00;95200.78;5075468;28;20202;-56
2023/10/21 10:18:02;;;;;;;0.45;0.30;;;;;;;15.52;100.00;95200.78;5073604;28;20198;-57
2023/10/21 10:20:29;;;;;;;0.40;0.40;;;;;;;15.52;100.00;95203.47;5071296;28;20218;-57
2023/10/21 10:22:58;;;;;;;0.20;0.20;;;;;;;15.38;100.00;95199.16;5084379;28;20605;-58
2023/10/21 10:25:25;;;;;;;0.10;0.10;;;;;;;15.40;100.00;95205.09;5088813;28;20316;-58
2023/10/21 10:27:58;;;;;;;0.35;0.35;;;;;;;15.32;100.00;95200.81;5087806;28;20209;-59
2023/10/21 10:30:25;;;;;;;1.20;0.30;;;;;;;15.45;100.00;95202.63;5083630;28;20293;-56
2023/10/21 10:32:52;;;;;;;0.93;0.55;;;;;;;15.43;100.00;95204.69;5075774;28;20646;-57
2023/10/21 10:35:32;;;;;;;0.57;0.40;;;;;;;15.52;100.00;95195.47;5073036;28;20208;-56
2023/10/21 10:37:59;;;;;;;0.50;0.50;;;;;;;15.54;100.00;95190.75;5075832;28;20211;-57
2023/10/21 10:40:34;;;;;;;0.32;0.32;;;;;;;15.61;100.00;95196.91;5075779;28;20222;-57
2023/10/21 10:43:03;;;;;;;0.40;0.40;;;;;;;15.55;100.00;95197.75;5074835;28;20238;-56
2023/10/21 10:45:31;;;;;;;2.70;0.75;;;;;;;15.60;100.00;95192.59;5072665;28;20232;-56
2023/10/21 10:48:01;;;;;;;0.65;0.45;;;;;;;15.52;100.00;95189.34;5071447;28;20293;-57
2023/10/21 10:50:28;;;;;;;0.88;0.47;;;;;;;15.44;100.00;95190.34;5071837;28;20198;-53
2023/10/21 10:52:55;;;;;;;1.70;0.35;;;;;;;15.42;100.00;95195.06;5071952;28;20264;-55
2023/10/21 10:55:22;;;;;;;0.30;0.30;;;;;;;15.45;100.00;95191.97;5071813;28;20194;-57
2023/10/21 10:57:51;;;;;;;0.55;0.40;;;;;;;15.40;100.00;95189.94;5070781;28;20259;-57
2023/10/21 11:00:21;;;;;;;0.20;0.20;;;;;;;15.40;100.00;95192.63;5071858;28;20226;-56
2023/10/21 11:02:48;;;;;;;0.40;0.32;;;;;;;15.32;100.00;95190.16;5071572;28;20198;-56
2023/10/21 11:05:20;;;;;;;0.10;0.10;;;;;;;15.32;100.00;95186.69;5069814;28;20202;-55
2023/10/21 11:07:47;;;;;;;1.23;0.38;;;;;;;15.32;100.00;95195.50;5071282;28;20217;-54
2023/10/21 11:10:18;;;;;;;0.30;0.30;;;;;;;15.26;100.00;95199.00;5069694;28;20284;-55
2023/10/21 11:12:45;;;;;;;1.30;0.50;;;;;;;15.24;100.00;95200.19;5069858;28;20620;-55
2023/10/21 11:15:12;;;;;;;1.50;1.40;;;;;;;15.21;100.00;95197.94;5070308;28;20210;-55
2023/10/21 11:17:40;;;;;;;0.63;0.63;;;;;;;15.25;100.00;95199.19;5071358;28;20257;-55
2023/10/21 11:20:08;;;;;;;0.68;0.32;;;;;;;15.11;100.00;95200.22;5070666;28;20717;-56
2023/10/21 11:22:35;;;;;;;0.57;0.57;;;;;;;15.03;100.00;95203.09;5070275;28;20203;-55
2023/10/21 11:25:03;;;;;;;2.05;0.47;;;;;;;15.01;100.00;95197.16;5069615;28;20213;-56